Latest Weather Observations for Tasman Island

IDT60801

Issued at 5:35 pm EST Friday 1 August 2014 (issued every 30 minutes, with the page automatically refreshed every 10 minutes)

About weather observations | Map of weather stations | Latest weather observations for TAS | Other Formats
Station Details ID: 094155 Name: TASMAN ISLAND Lat: -43.24 Lon: 148.00 Height: 240.0 m
Data from the previous 72 hours. | See also: Recent months at Tasman Island
Date/Time
EST
Temp
°C
App
Temp
°C
Dew
Point
Rel
Hum
%
Delta-T
°C
Wind Press
QNH
hPa
Press
MSL
hPa
Rain
since 9 am
mm
Dir
 
Spd
km/h
Gust
km/h
Spd
kts
Gust
kts
01/05:34pm 6.2 -1.8 0.5 67 2.3 SSW 32 59 17 32 1004.4 - 6.8
01/05:30pm 6.0 -2.0 0.1 66 2.3 SSW 32 46 17 25 1004.4 - 6.8
01/05:00pm 5.9 -4.1 2.0 76 1.6 SSW 44 69 24 37 1003.1 1003.3 6.8
01/04:30pm 6.5 -3.3 0.0 63 2.6 SSW 41 65 22 35 1002.0 - 6.8
01/04:00pm 5.3 -4.7 0.7 72 1.8 SSW 43 61 23 33 1001.0 1001.3 6.8
01/03:30pm 6.1 -5.2 1.2 71 2.0 SSW 50 78 27 42 999.9 - 6.8
01/03:00pm 7.0 -4.6 -0.7 58 3.0 SSW 50 74 27 40 998.8 999.0 6.8
01/02:30pm 6.9 -4.1 1.0 66 2.4 SSW 48 74 26 40 997.7 - 6.8
01/02:00pm 6.1 -3.4 1.8 74 1.8 SSW 41 70 22 38 996.6 996.9 6.8
01/01:30pm 5.7 -3.5 3.5 86 0.9 SSW 41 61 22 33 995.9 - 6.6
01/01:22pm 5.7 -2.1 2.7 81 1.2 S 33 54 18 29 995.7 - 6.6
01/01:21pm 6.1 -2.1 2.9 80 1.3 S 35 54 19 29 995.7 - 6.6
01/01:00pm 6.1 -6.3 1.6 73 1.9 SSW 56 80 30 43 995.0 995.2 6.6
01/12:54pm 5.9 -6.5 1.6 74 1.7 SSW 56 74 30 40 995.0 - 6.6
01/12:48pm 5.9 -7.0 1.8 75 1.7 SSW 59 72 32 39 994.6 - 6.6
01/12:30pm 5.3 -3.3 2.5 82 1.2 SSW 37 61 20 33 994.5 - 6.4
01/12:13pm 5.1 -4.1 3.6 90 0.6 S 41 61 22 33 994.4 - 6.0
01/12:11pm 5.2 -4.9 3.7 90 0.6 S 46 61 25 33 994.2 - 6.0
01/12:00pm 5.2 -2.2 3.9 91 0.6 SW 32 69 17 37 993.9 994.1 5.8
01/11:54am 5.2 -3.6 3.4 88 0.8 SW 39 59 21 32 993.7 - 5.6
01/11:47am 5.4 -7.3 2.9 84 1.0 SW 59 85 32 46 993.1 - 5.6
01/11:44am 5.8 -1.0 3.0 82 1.2 SW 28 76 15 41 993.0 - 5.6
01/11:30am 6.9 0.9 3.3 78 1.5 SW 24 52 13 28 992.9 - 5.6
01/11:00am 6.3 -1.6 2.2 75 1.7 SSW 33 54 18 29 992.7 992.8 5.6
01/10:30am 4.6 -3.8 3.7 94 0.4 SSW 37 67 20 36 992.3 - 5.6
01/10:18am 4.5 -2.1 4.2 98 0.1 SSW 28 54 15 29 992.0 - 5.2
01/10:00am 3.7 -0.6 3.0 95 0.3 N 15 35 8 19 991.7 991.9 4.4
01/09:30am 3.9 -0.1 2.6 91 0.5 NW 13 44 7 24 990.9 - 2.0
01/09:09am 4.7 -2.3 2.2 84 1.0 WSW 28 54 15 29 990.3 - 0.6
01/09:00am 4.6 0.7 1.3 79 1.3 W 11 37 6 20 990.1 990.3 18.6
01/08:52am 4.7 1.5 0.8 76 1.5 W 7 22 4 12 989.8 - 18.2
01/08:30am 5.3 -6.6 -0.1 68 2.1 WNW 52 74 28 40 988.7 - 18.2
01/08:00am 4.8 -7.1 0.0 71 1.9 WNW 52 80 28 43 987.2 987.4 18.2
01/07:30am 4.7 -8.9 -0.5 69 2.0 NW 61 87 33 47 986.2 - 18.2
01/07:00am 4.3 -8.9 -0.1 73 1.7 NW 59 82 32 44 986.1 986.3 18.2
01/06:30am 4.4 -9.6 -0.4 71 1.8 NW 63 83 34 45 985.4 - 18.2
01/06:00am 4.2 -8.6 -0.2 73 1.7 NW 57 83 31 45 985.6 985.8 18.2
01/05:30am 4.1 -6.2 0.3 76 1.5 NW 44 70 24 38 985.8 - 18.2
01/05:00am 4.3 -6.0 0.1 74 1.6 NW 44 72 24 39 986.0 986.2 18.2
01/04:30am 4.7 -7.6 -0.3 70 1.9 NW 54 85 29 46 985.6 - 18.2
01/04:00am 4.7 -8.0 -0.7 68 2.1 NW 56 89 30 48 985.2 985.4 18.2
01/03:30am 4.6 -7.0 -0.6 69 2.0 NW 50 74 27 40 985.0 - 18.2
01/03:00am 4.7 -7.3 -0.7 68 2.1 WNW 52 80 28 43 984.7 984.9 18.2
01/02:30am 4.8 -8.5 -0.6 68 2.0 NW 59 89 32 48 983.8 - 18.2
01/02:00am 4.3 -8.3 0.1 74 1.6 WNW 56 78 30 42 984.3 984.4 18.2
01/01:30am 4.3 -8.5 0.1 74 1.6 WNW 57 87 31 47 983.6 - 18.2
01/01:00am 4.6 -8.9 0.4 74 1.7 WNW 61 87 33 47 983.1 983.3 18.2
01/12:30am 4.2 -7.5 0.9 79 1.3 NW 52 78 28 42 983.4 - 18.2
01/12:00am 3.9 -8.1 1.3 83 1.0 NW 54 83 29 45 983.0 983.2 18.2
 
Date/Time
EST
Temp
°C
App
Temp
°C
Dew
Point
Rel
Hum
%
Delta-T
°C
Wind Press
QNH
hPa
Press
MSL
hPa
Rain
since 9 am
mm
Dir
 
Spd
km/h
Gust
km/h
Spd
kts
Gust
kts
31/11:30pm 4.0 -7.6 2.0 87 0.8 NW 52 80 28 43 982.7 - 18.2
31/11:07pm 5.1 -9.9 0.7 73 1.7 NW 69 87 37 47 982.9 - 18.0
31/11:00pm 4.7 -6.3 0.7 75 1.6 NW 48 70 26 38 982.8 983.0 18.0
31/10:30pm 4.5 -6.9 0.6 76 1.5 NW 50 70 27 38 982.2 - 18.0
31/10:25pm 4.7 -6.7 0.5 74 1.6 NW 50 70 27 38 981.8 - 18.0
31/10:00pm 4.3 -11.2 1.2 80 1.2 NW 72 102 39 55 980.9 981.1 18.0
31/09:46pm 4.4 -12.9 1.4 81 1.2 NW 82 106 44 57 981.0 - 18.0
31/09:45pm 4.4 -9.0 1.4 81 1.2 NW 61 106 33 57 981.0 - 18.0
31/09:30pm 3.9 -8.4 1.8 86 0.9 NW 56 87 30 47 981.5 - 18.0
31/09:00pm 5.1 -7.3 1.2 76 1.6 NW 56 78 30 42 981.1 981.3 17.8
31/08:30pm 5.7 -7.8 0.7 70 2.0 NW 61 89 33 48 980.4 - 17.8
31/08:00pm 5.5 -5.4 1.6 76 1.6 NW 48 72 26 39 980.5 980.6 17.8
31/07:30pm 5.9 -4.9 1.8 75 1.7 NW 48 78 26 42 980.7 - 17.8
31/07:22pm 6.2 -6.8 1.5 72 1.9 NW 59 78 32 42 980.3 - 17.8
31/07:13pm 6.5 -3.0 1.8 72 1.9 NW 41 72 22 39 980.4 - 17.8
31/07:11pm 6.5 -1.9 1.8 72 1.9 NW 35 52 19 28 980.2 - 17.8
31/07:00pm 6.7 -5.7 1.4 69 2.2 NW 56 82 30 44 980.4 980.5 17.8
31/06:30pm 6.7 -5.7 2.6 75 1.7 NW 57 85 31 46 979.9 - 17.8
31/06:00pm 6.8 -5.4 2.7 75 1.8 NNW 56 83 30 45 979.5 979.7 17.8
31/05:30pm 6.0 -4.2 3.0 81 1.3 NNW 46 69 25 37 979.4 - 17.8
31/05:07pm 5.5 -1.1 4.2 91 0.6 N 28 56 15 30 979.1 - 17.6
31/05:00pm 5.3 -0.1 4.3 93 0.4 N 22 35 12 19 979.8 979.9 17.6
31/04:30pm 4.7 -0.7 4.3 97 0.2 NNW 22 30 12 16 980.9 - 17.6
31/04:00pm 4.6 0.9 4.2 97 0.2 NNE 13 19 7 10 980.2 980.3 17.6
31/03:30pm 4.8 2.8 4.4 97 0.2 NNE 4 9 2 5 979.7 - 17.6
31/03:00pm 4.3 1.6 3.9 97 0.2 W 7 17 4 9 981.2 981.4 17.6
31/02:30pm 4.2 1.1 3.8 97 0.2 WNW 9 22 5 12 981.8 - 17.6
31/02:00pm 4.0 0.5 3.6 97 0.2 WSW 11 24 6 13 981.4 981.6 16.8
31/01:30pm 4.4 0.2 3.8 96 0.3 SSW 15 26 8 14 981.3 - 14.4
31/01:00pm 4.7 1.6 3.7 93 0.4 W 9 19 5 10 981.9 982.1 11.8
31/12:30pm 4.8 1.7 3.8 93 0.4 WSW 9 17 5 9 982.8 - 10.0
31/12:00pm 5.3 2.9 4.1 92 0.5 SW 6 17 3 9 983.4 983.6 7.6
31/11:30am 5.5 3.4 4.0 90 0.6 SW 4 11 2 6 984.1 - 6.0
31/11:00am 5.9 3.9 4.5 91 0.6 WNW 4 13 2 7 985.5 985.7 4.8
31/10:30am 6.2 1.7 4.4 88 0.8 W 17 28 9 15 986.0 - 2.6
31/10:00am 6.7 3.3 3.9 82 1.2 W 11 22 6 12 986.3 986.5 1.0
31/09:30am 6.7 1.2 3.9 82 1.2 WNW 22 35 12 19 985.9 - 0.2
31/09:00am 6.8 -0.3 3.8 81 1.3 NW 30 46 16 25 987.0 987.2 13.6
31/08:49am 6.9 0.3 4.4 84 1.1 WNW 28 46 15 25 987.1 - 13.6
31/08:30am 6.9 1.4 4.2 83 1.2 WNW 22 46 12 25 987.4 - 13.6
31/08:01am 7.6 -1.6 3.5 75 1.8 WNW 41 61 22 33 987.8 - 13.0
31/08:00am 7.6 -2.0 3.5 75 1.8 WNW 43 59 23 32 987.7 987.9 13.0
31/07:46am 7.4 -1.3 4.2 80 1.4 WNW 39 57 21 31 987.5 - 13.0
31/07:36am 7.0 -2.8 5.3 89 0.8 WNW 46 56 25 30 988.1 - 13.0
31/07:30am 6.7 2.1 5.7 93 0.5 WNW 19 33 10 18 988.1 - 12.8
31/07:00am 6.3 1.2 5.9 97 0.2 WNW 22 35 12 19 988.1 988.4 12.6
31/06:30am 6.3 2.9 6.0 98 0.1 W 13 24 7 13 988.8 - 12.6
31/06:00am 6.3 2.6 6.2 99 0.0 W 15 33 8 18 989.2 989.4 12.0
31/05:30am 6.5 2.4 6.4 99 0.0 WSW 17 35 9 19 989.6 - 10.4
31/05:00am 6.5 1.1 6.4 99 0.0 SSW 24 46 13 25 988.8 989.0 9.4
31/04:30am 6.5 -1.0 6.4 99 0.0 SW 35 61 19 33 988.8 - 7.6
31/04:08am 7.1 1.1 7.0 99 0.0 SSW 28 50 15 27 988.7 - 6.0
31/04:00am 7.2 2.3 6.8 97 0.2 SSW 22 41 12 22 988.7 988.9 5.2
31/03:30am 7.5 2.6 6.9 96 0.3 SSW 22 39 12 21 988.4 - 4.8
31/03:00am 8.6 5.2 7.8 95 0.4 NNW 15 48 8 26 989.1 989.3 4.6
31/02:30am 9.2 6.3 8.1 93 0.5 NW 13 43 7 23 989.0 - 3.8
31/02:00am 11.2 7.5 6.5 73 2.3 WSW 15 37 8 20 988.0 988.3 2.0
31/01:48am 11.4 7.7 6.3 71 2.4 WSW 15 39 8 21 987.8 - 2.0
31/01:30am 11.4 0.3 6.3 71 2.4 NW 54 82 29 44 987.6 - 2.0
31/01:00am 12.2 0.8 4.9 61 3.4 NW 54 89 29 48 987.2 987.4 2.0
31/12:30am 11.9 -1.7 4.4 60 3.4 NW 65 95 35 51 987.0 - 2.0
31/12:00am 12.1 -0.3 4.8 61 3.4 NW 59 80 32 43 987.2 987.4 2.0
 
Date/Time
EST
Temp
°C
App
Temp
°C
Dew
Point
Rel
Hum
%
Delta-T
°C
Wind Press
QNH
hPa
Press
MSL
hPa
Rain
since 9 am
mm
Dir
 
Spd
km/h
Gust
km/h
Spd
kts
Gust
kts
30/11:30pm 12.2 0.7 4.4 59 3.6 WNW 54 78 29 42 987.5 - 2.0
30/11:29pm 12.3 0.8 4.3 58 3.7 NW 54 74 29 40 987.5 - 2.0
30/11:00pm 12.4 -3.7 4.1 57 3.8 WNW 78 104 42 56 987.1 987.3 2.0
30/10:40pm 12.4 -2.2 3.9 56 3.9 NW 70 100 38 54 987.5 - 1.8
30/10:30pm 12.2 1.0 3.9 57 3.8 NW 52 80 28 43 987.9 - 1.8
30/10:00pm 11.7 0.7 5.1 64 3.1 NW 52 78 28 42 988.6 988.8 1.8
30/09:30pm 11.1 0.2 5.6 69 2.6 NW 52 76 28 41 989.4 - 1.8
30/09:00pm 10.7 -0.9 6.5 75 2.0 NW 57 87 31 47 989.4 989.6 1.8
30/08:55pm 10.5 -0.9 6.6 77 1.9 NW 56 87 30 47 989.5 - 1.8
30/08:30pm 10.3 1.0 5.9 74 2.1 NNW 44 65 24 35 990.4 - 1.6
30/08:00pm 10.3 1.9 5.7 73 2.2 NW 39 63 21 34 990.8 991.0 1.6
30/07:30pm 11.0 1.2 5.5 69 2.6 WNW 46 72 25 39 990.8 - 1.6
30/07:17pm 11.1 -0.2 5.6 69 2.6 NW 54 85 29 46 991.1 - 1.6
30/07:00pm 10.8 2.2 6.4 74 2.1 NW 41 63 22 34 991.5 991.8 1.6
30/06:49pm 10.4 3.5 7.1 80 1.6 NW 33 57 18 31 992.0 - 1.6
30/06:30pm 10.1 3.5 7.7 85 1.2 NW 32 50 17 27 992.0 - 1.6
30/06:00pm 9.7 3.1 8.5 92 0.6 NW 33 54 18 29 992.4 992.7 1.4
30/05:41pm 9.3 2.7 8.7 96 0.3 NNW 33 43 18 23 992.3 - 1.2
30/05:30pm 8.6 6.1 8.2 97 0.2 NNW 11 22 6 12 992.5 - 1.2
30/05:00pm 9.1 6.9 8.0 93 0.5 SSW 9 22 5 12 992.8 993.0 1.2
30/04:30pm 9.4 7.4 7.3 87 1.0 WNW 7 24 4 13 993.2 - 1.2
30/04:00pm 9.7 5.8 7.0 83 1.3 WNW 17 32 9 17 992.7 992.9 1.0
30/03:30pm 9.6 6.4 7.0 84 1.2 W 13 30 7 16 992.2 - 1.0
30/03:00pm 9.5 5.0 6.9 84 1.2 WNW 20 46 11 25 992.8 993.0 1.0
30/02:30pm 9.7 3.9 8.0 89 0.8 WNW 28 43 15 23 993.1 - 1.0
30/02:00pm 8.9 6.4 8.1 95 0.4 W 11 28 6 15 993.4 993.6 0.6
30/01:30pm 8.7 6.4 7.6 93 0.5 NNW 9 24 5 13 993.3 - 0.6
30/01:00pm 10.3 5.7 6.6 78 1.8 WSW 20 48 11 26 993.5 993.7 0.0
30/12:30pm 11.4 4.2 5.7 68 2.7 NW 33 57 18 31 993.2 - 0.0
30/12:28pm 11.4 3.3 5.3 66 2.8 NW 37 57 20 31 993.3 - 0.0
30/12:27pm 11.5 3.1 5.4 66 2.9 NW 39 57 21 31 993.2 - 0.0
30/12:00pm 11.7 -0.7 4.7 62 3.3 WNW 59 83 32 45 992.7 992.9 0.0
30/11:30am 11.6 0.8 4.3 61 3.3 WNW 50 76 27 41 992.7 - 0.0
30/11:00am 11.2 -0.7 4.4 63 3.1 WNW 56 83 30 45 993.1 993.3 0.0
30/10:30am 10.6 -0.2 4.1 64 2.9 NW 50 70 27 38 993.7 - 0.0
30/10:00am 10.1 -0.4 3.4 63 3.0 NW 48 72 26 39 993.8 994.0 0.0
30/09:30am 9.7 -1.4 2.6 61 3.1 NW 50 74 27 40 993.9 - 0.0
30/09:00am 9.0 -1.5 1.7 60 3.1 NW 46 67 25 36 994.2 994.4 6.0
30/08:30am 8.7 -1.9 1.1 59 3.1 NW 46 65 25 35 994.7 - 6.0
30/08:02am 8.2 -1.9 0.4 58 3.2 NW 43 65 23 35 994.7 - 6.0
30/08:00am 8.2 -1.5 0.4 58 3.2 NW 41 57 22 31 994.8 995.1 6.0
30/07:37am 7.8 -0.4 0.3 59 3.0 NW 33 54 18 29 994.6 - 6.0
30/07:30am 7.6 -0.9 0.8 62 2.8 NW 35 48 19 26 994.7 - 6.0
30/07:00am 8.3 -2.1 -0.4 54 3.5 NW 44 63 24 34 994.5 994.7 6.0
30/06:30am 8.5 -0.2 -0.3 54 3.5 NW 35 61 19 33 994.6 - 6.0
30/06:00am 8.5 0.2 -0.3 54 3.5 WNW 33 61 18 33 994.8 995.1 6.0
30/05:30am 8.4 1.1 -0.1 55 3.4 WNW 28 63 15 34 994.2 - 6.0
30/05:26am 8.5 1.2 0.2 56 3.3 WNW 28 59 15 32 994.2 - 6.0
30/05:00am 8.3 2.8 0.3 57 3.3 W 19 48 10 26 993.7 993.9 6.0
30/04:30am 7.8 3.7 2.1 67 2.4 WNW 13 41 7 22 994.1 - 6.0
30/04:00am 7.5 3.7 1.6 66 2.5 SSE 11 24 6 13 993.5 993.7 6.0
30/03:30am 7.8 2.7 1.0 62 2.8 W 17 74 9 40 992.4 - 6.0
30/03:06am 7.7 0.2 1.5 65 2.6 NW 30 78 16 42 991.4 - 6.0
30/03:00am 7.5 1.6 1.6 66 2.5 NW 22 52 12 28 991.1 991.3 6.0
30/02:30am 6.8 2.3 2.1 72 2.0 WNW 15 44 8 24 990.7 - 6.0
30/02:00am 6.8 -1.4 2.9 76 1.7 WNW 35 67 19 36 990.0 990.2 6.0
30/01:30am 5.3 -1.1 5.2 99 0.0 W 28 70 15 38 990.0 - 6.0
30/01:16am 4.3 -2.5 3.1 92 0.5 WNW 28 100 15 54 989.7 - 6.0
30/01:12am 6.3 -0.6 2.6 77 1.5 W 28 59 15 32 990.6 - 4.6
30/01:00am 7.0 3.4 3.1 76 1.7 WNW 11 35 6 19 990.0 990.2 4.0
30/12:30am 6.6 1.2 2.3 74 1.8 WSW 20 44 11 24 989.0 - 4.0
30/12:02am 7.3 -0.5 1.8 68 2.3 NW 32 65 17 35 988.1 - 4.0
30/12:00am 7.4 2.2 2.3 70 2.2 ENE 19 37 10 20 988.2 988.5 4.0
 
Date/Time
EST
Temp
°C
App
Temp
°C
Dew
Point
Rel
Hum
%
Delta-T
°C
Wind Press
QNH
hPa
Press
MSL
hPa
Rain
since 9 am
mm
Dir
 
Spd
km/h
Gust
km/h
Spd
kts
Gust
kts
29/11:34pm 6.9 0.1 3.2 77 1.6 W 28 72 15 39 987.0 - 4.0
29/11:32pm 6.9 1.6 3.2 77 1.6 NW 20 61 11 33 987.2 - 4.0
29/11:30pm 7.3 -2.3 3.2 75 1.8 WSW 43 104 23 56 986.7 - 4.0
29/11:23pm 7.6 -0.5 3.1 73 1.9 WNW 35 117 19 63 986.3 - 3.8
29/11:20pm 7.6 -0.5 3.1 73 1.9 NW 35 96 19 52 986.0 - 3.8
29/11:17pm 8.0 -6.8 2.9 70 2.2 NW 70 107 38 58 986.3 - 3.6
29/11:13pm 9.9 2.4 1.5 56 3.5 WNW 30 98 16 53 986.0 - 3.6
29/11:12pm 10.2 3.5 1.3 54 3.7 WNW 26 91 14 49 986.1 - 3.6
29/11:10pm 10.4 3.2 0.4 50 4.1 W 28 59 15 32 986.0 - 3.6
29/11:08pm 10.5 -2.2 -0.3 47 4.4 NW 56 87 30 47 986.5 - 3.6
29/11:07pm 10.4 1.8 0.2 49 4.2 WNW 35 87 19 47 986.4 - 3.6
29/11:06pm 10.4 3.6 0.7 51 4.0 WNW 26 56 14 30 986.4 - 3.6
29/11:04pm 10.4 -2.7 0.4 50 4.1 NW 59 85 32 46 986.5 - 3.6
29/11:01pm 10.2 3.0 0.8 52 3.9 WNW 28 74 15 40 986.5 - 3.6
29/11:00pm 10.2 4.5 0.8 52 4.0 WNW 20 43 11 23 986.5 986.7 3.6
29/10:30pm 10.4 1.8 0.4 50 4.1 WNW 35 67 19 36 985.9 - 3.6
29/10:00pm 9.4 2.5 2.7 63 2.9 WNW 28 57 15 31 986.8 987.0 3.6
29/09:30pm 9.2 -2.3 2.1 61 3.0 NW 52 87 28 47 985.5 - 3.6
29/09:00pm 8.7 -3.7 2.7 66 2.6 WNW 57 102 31 55 985.3 985.5 3.6
29/08:55pm 8.6 -4.6 2.6 66 2.6 WNW 61 93 33 50 984.9 - 3.6
29/08:47pm 8.5 -8.8 2.7 67 2.5 NW 83 111 45 60 984.9 - 3.6
29/08:30pm 9.7 -2.6 1.8 58 3.3 WNW 56 102 30 55 985.1 - 3.6
29/08:23pm 9.8 -2.7 1.9 58 3.4 WNW 57 89 31 48 984.6 - 3.6
29/08:18pm 9.7 -6.9 1.1 55 3.6 NW 78 104 42 56 984.6 - 3.6
29/08:01pm 9.7 -3.8 2.8 62 3.0 NW 63 82 34 44 984.7 - 3.6
29/08:00pm 9.8 -4.0 3.1 63 3.0 NW 65 82 35 44 984.7 984.9 3.6
29/07:59pm 9.8 -4.1 2.9 62 3.0 NW 65 82 35 44 984.7 - 3.6
29/07:45pm 9.6 -0.1 3.1 64 2.8 NW 43 85 23 46 984.5 - 3.6
29/07:37pm 9.6 1.9 3.6 66 2.6 NW 33 59 18 32 984.7 - 3.6
29/07:34pm 9.6 -2.6 3.6 66 2.6 NW 57 76 31 41 984.9 - 3.6
29/07:33pm 9.6 -3.4 3.6 66 2.6 NW 61 76 33 41 984.8 - 3.6
29/07:30pm 9.7 1.6 3.2 64 2.8 NW 35 72 19 39 985.0 - 3.6
29/07:24pm 10.0 0.8 3.3 63 2.9 NW 41 59 22 32 985.0 - 3.6
29/07:00pm 9.3 -5.3 3.3 66 2.7 WNW 69 102 37 55 984.2 984.3 3.6
29/06:48pm 9.0 -6.5 3.4 68 2.4 WNW 74 95 40 51 983.7 - 3.6
29/06:45pm 8.4 -3.1 4.4 76 1.8 WNW 54 80 29 43 984.0 - 3.6
29/06:36pm 8.2 1.8 5.1 81 1.4 WNW 28 57 15 31 984.2 - 3.6
29/06:30pm 8.3 3.7 5.4 82 1.3 WNW 19 54 10 29 984.2 - 3.6
29/06:00pm 9.5 3.5 6.9 84 1.3 WNW 28 69 15 37 985.4 985.6 2.2

Other Formats:

Comma delimited format used in spreadsheet applications
http://www.bom.gov.au/fwo/IDT60801/IDT60801.95986.axf

JavaScript Object Notation format (JSON) in row-major order
http://www.bom.gov.au/fwo/IDT60801/IDT60801.95986.json